createdAt,value
2022-12-05T00:00:46.386Z,102006.31
2022-12-05T00:03:53.023Z,102003.69
2022-12-05T00:06:56.691Z,101999.34
2022-12-05T00:10:00.527Z,101999.34
2022-12-05T00:13:06.266Z,101998.50
2022-12-05T00:16:11.361Z,102001.09
2022-12-05T00:19:17.297Z,101988.13
2022-12-05T00:22:20.962Z,101989.78
2022-12-05T00:25:24.626Z,101985.50
2022-12-05T00:28:29.603Z,101990.69
2022-12-05T00:31:33.421Z,101984.63
2022-12-05T00:34:37.837Z,101988.97
2022-12-05T00:37:41.462Z,101981.19
2022-12-05T00:40:45.058Z,101976.81
2022-12-05T00:43:50.488Z,101983.84
2022-12-05T00:46:54.217Z,101970.84
2022-12-05T00:49:58.078Z,101975.97
2022-12-05T00:53:01.923Z,101973.38
2022-12-05T00:56:08.199Z,101976.84
2022-12-05T00:59:19.595Z,101978.59
2022-12-05T01:02:23.333Z,101971.72
2022-12-05T01:05:26.924Z,101973.50
2022-12-05T01:08:30.740Z,101968.28
2022-12-05T01:11:40.769Z,101963.13
2022-12-05T01:14:46.489Z,101967.41
2022-12-05T01:17:50.087Z,101965.69
2022-12-05T01:20:54.442Z,101968.28
2022-12-05T01:23:58.639Z,101965.69
2022-12-05T01:27:02.386Z,101959.66
2022-12-05T01:30:09.689Z,101961.41
2022-12-05T01:33:14.075Z,101992.59
2022-12-05T01:36:18.345Z,101991.66
2022-12-05T01:39:22.429Z,101989.06
2022-12-05T01:42:26.594Z,101988.25
2022-12-05T01:45:36.876Z,101987.38
2022-12-05T01:48:40.745Z,101983.06
2022-12-05T01:51:49.319Z,101983.94
2022-12-05T01:54:58.003Z,101992.53
2022-12-05T01:58:04.633Z,101979.56
2022-12-05T02:01:09.810Z,101977.78
2022-12-05T02:04:13.810Z,101977.84
2022-12-05T02:07:19.003Z,101980.41
2022-12-05T02:10:22.882Z,101979.53
2022-12-05T02:13:54.614Z,101971.72
2022-12-05T02:17:11.310Z,101970.06
2022-12-05T02:20:34.743Z,101966.59
2022-12-05T02:24:33.458Z,101968.31
2022-12-05T02:28:13.212Z,101970.91
2022-12-05T02:31:28.760Z,101964.88
2022-12-05T02:34:43.650Z,101971.81
2022-12-05T02:37:56.826Z,101965.72
2022-12-05T02:41:17.606Z,101957.94
2022-12-05T02:44:29.866Z,101950.25
2022-12-05T02:47:41.780Z,101950.25
2022-12-05T02:50:50.153Z,101950.25
2022-12-05T02:53:58.163Z,101947.66
2022-12-05T02:57:02.933Z,101948.50
2022-12-05T03:00:08.512Z,101949.38
2022-12-05T03:03:20.466Z,101964.03
2022-12-05T03:06:29.513Z,101954.50
2022-12-05T03:09:38.752Z,101954.50
2022-12-05T03:12:51.853Z,101951.03
2022-12-05T03:16:02.006Z,101948.44
2022-12-05T03:19:16.366Z,101944.06
2022-12-05T03:22:29.653Z,101947.50
2022-12-05T03:25:48.879Z,101943.19
2022-12-05T03:29:11.585Z,101945.78
2022-12-05T03:32:24.017Z,101950.06
2022-12-05T03:35:40.967Z,101952.66
2022-12-05T03:38:55.180Z,101948.38
2022-12-05T03:42:10.202Z,101954.41
2022-12-05T03:45:25.970Z,101949.16
2022-12-05T03:48:38.160Z,101951.81
2022-12-05T03:51:51.634Z,101950.91
2022-12-05T03:55:01.503Z,101944.03
2022-12-05T03:58:11.458Z,101944.91
2022-12-05T04:01:21.650Z,101944.88
2022-12-05T04:04:33.130Z,101949.22
2022-12-05T04:07:41.855Z,101944.03
2022-12-05T04:10:50.902Z,101944.88
2022-12-05T04:14:01.244Z,101938.78
2022-12-05T04:17:10.116Z,101939.69
2022-12-05T04:20:36.606Z,101943.16
2022-12-05T04:23:47.605Z,101944.06
2022-12-05T04:27:04.798Z,101941.47
2022-12-05T04:30:14.259Z,101950.97
2022-12-05T04:33:29.432Z,101949.28
2022-12-05T04:36:36.818Z,101951.88
2022-12-05T04:39:52.313Z,101947.53
2022-12-05T04:42:59.383Z,101950.16
2022-12-05T04:46:12.776Z,101948.38
2022-12-05T04:49:23.842Z,101951.03
2022-12-05T04:52:30.144Z,101945.88
2022-12-05T04:55:40.682Z,101952.75
2022-12-05T04:58:44.539Z,101956.22
2022-12-05T05:01:54.489Z,101947.66
2022-12-05T05:05:02.272Z,101949.34
2022-12-05T05:08:06.356Z,101939.88
2022-12-05T05:11:17.842Z,101939.88
2022-12-05T05:14:21.412Z,101937.28
2022-12-05T05:17:24.948Z,101939.00
2022-12-05T05:20:28.588Z,101942.50
2022-12-05T05:23:32.254Z,101946.84
2022-12-05T05:26:39.641Z,101937.34
2022-12-05T05:29:43.639Z,101935.63
2022-12-05T05:32:47.360Z,101933.91
2022-12-05T05:35:51.222Z,101940.81
2022-12-05T05:38:57.910Z,101938.28
2022-12-05T05:42:02.994Z,101940.00
2022-12-05T05:45:07.686Z,101940.00
2022-12-05T05:48:11.428Z,101938.31
2022-12-05T05:51:17.638Z,101936.59
2022-12-05T05:54:21.294Z,101938.34
2022-12-05T05:57:26.375Z,101940.09
2022-12-05T06:00:31.325Z,101934.00
2022-12-05T06:03:42.340Z,101935.78
2022-12-05T06:06:46.100Z,101929.75
2022-12-05T06:09:49.770Z,101927.13
2022-12-05T06:12:55.027Z,101930.56
2022-12-05T06:15:58.723Z,101930.59
2022-12-05T06:19:02.571Z,101930.63
2022-12-05T06:22:06.255Z,101936.75
2022-12-05T06:25:11.911Z,101931.53
2022-12-05T06:28:17.986Z,101935.88
2022-12-05T06:31:27.146Z,101937.59
2022-12-05T06:34:32.604Z,101939.38
2022-12-05T06:37:38.722Z,101943.72
2022-12-05T06:40:43.945Z,101945.44
2022-12-05T06:43:49.345Z,101946.31
2022-12-05T06:46:52.970Z,101948.94
2022-12-05T06:49:56.847Z,101946.31
2022-12-05T06:53:00.564Z,101947.19
2022-12-05T06:56:08.623Z,101945.44
2022-12-05T06:59:13.630Z,101946.31
2022-12-05T07:02:16.435Z,101942.00
2022-12-05T07:05:20.823Z,101951.50
2022-12-05T07:08:24.382Z,101939.38
2022-12-05T07:11:28.550Z,101941.13
2022-12-05T07:14:50.034Z,101949.78
2022-12-05T07:17:53.961Z,101946.31
2022-12-05T07:21:14.513Z,101945.44
2022-12-05T07:24:18.997Z,101951.50
2022-12-05T07:27:27.305Z,101948.91
2022-12-05T07:30:33.439Z,101948.03
2022-12-05T07:33:37.865Z,101944.56
2022-12-05T07:36:41.683Z,101946.34
2022-12-05T07:39:45.273Z,101944.56
2022-12-05T07:42:50.368Z,101942.88
2022-12-05T07:45:55.409Z,101946.34
2022-12-05T07:49:00.602Z,101935.94
2022-12-05T07:52:04.557Z,101931.63
2022-12-05T07:55:10.624Z,101940.25
2022-12-05T07:58:14.381Z,101935.94
2022-12-05T08:01:22.727Z,101942.00
2022-12-05T08:04:26.506Z,101944.59
2022-12-05T08:07:30.392Z,101948.91
2022-12-05T08:10:38.569Z,101944.59
2022-12-05T08:13:43.368Z,101941.13
2022-12-05T08:16:48.698Z,101946.31
2022-12-05T08:19:52.294Z,101947.13
2022-12-05T08:22:56.764Z,101945.38
2022-12-05T08:26:04.568Z,101947.16
2022-12-05T08:29:10.778Z,101948.00
2022-12-05T08:32:16.000Z,101945.38
2022-12-05T08:35:19.635Z,101947.16
2022-12-05T08:38:25.058Z,101954.94
2022-12-05T08:41:30.650Z,101955.75
2022-12-05T08:44:34.408Z,101957.53
2022-12-05T08:47:39.482Z,101964.41
2022-12-05T08:50:44.112Z,101960.97
2022-12-05T08:53:47.818Z,101960.13
2022-12-05T08:56:53.678Z,101965.31
2022-12-05T08:59:58.696Z,101965.31
2022-12-05T09:03:03.693Z,101965.31
2022-12-05T09:06:09.686Z,101967.94
2022-12-05T09:09:13.835Z,101967.88
2022-12-05T09:12:17.519Z,101974.00
2022-12-05T09:15:27.841Z,101970.69
2022-12-05T09:18:33.019Z,101970.53
2022-12-05T09:21:36.638Z,101979.19
2022-12-05T09:24:40.382Z,101973.94
2022-12-05T09:27:44.070Z,101971.34
2022-12-05T09:30:57.501Z,101960.06
2022-12-05T09:34:02.784Z,101972.16
2022-12-05T09:37:30.883Z,101966.13
2022-12-05T09:40:32.815Z,101961.78
2022-12-05T09:43:50.990Z,101966.97
2022-12-05T09:47:01.127Z,101971.31
2022-12-05T09:50:21.210Z,101972.13
2022-12-05T09:53:31.812Z,101977.31
2022-12-05T09:56:35.502Z,101978.91
2022-12-05T09:59:39.087Z,101976.34
2022-12-05T10:02:58.974Z,101973.72
2022-12-05T10:06:20.235Z,101979.78
2022-12-05T10:09:46.987Z,101977.19
2022-12-05T10:13:15.156Z,101971.91
2022-12-05T10:16:30.815Z,101974.50
2022-12-05T10:19:40.989Z,101972.56
2022-12-05T10:22:52.639Z,101976.00
2022-12-05T10:26:01.306Z,101969.09
2022-12-05T10:29:20.598Z,101967.41
2022-12-05T10:32:31.509Z,101970.84
2022-12-05T10:35:38.177Z,101964.81
2022-12-05T10:38:45.732Z,101971.66
2022-12-05T10:41:49.470Z,101965.19
2022-12-05T10:44:59.954Z,101960.84
2022-12-05T10:48:03.830Z,101960.66
2022-12-05T10:51:12.577Z,101957.19
2022-12-05T10:54:23.616Z,101962.34
2022-12-05T10:57:30.948Z,101972.66
2022-12-05T11:00:34.738Z,101970.84
2022-12-05T11:03:41.804Z,101969.13
2022-12-05T11:06:53.849Z,101961.34
2022-12-05T11:10:00.263Z,101961.31
2022-12-05T11:13:16.302Z,101958.75
2022-12-05T11:16:27.057Z,101953.56
2022-12-05T11:19:34.494Z,101943.06
2022-12-05T11:22:44.443Z,101948.28
2022-12-05T11:25:52.948Z,101956.84
2022-12-05T11:28:56.521Z,101949.03
2022-12-05T11:32:02.249Z,101949.94
2022-12-05T11:35:27.165Z,101942.13
2022-12-05T11:38:34.818Z,101942.94
2022-12-05T11:42:06.118Z,101946.47
2022-12-05T11:45:36.794Z,101940.38
2022-12-05T11:49:18.884Z,101937.91
2022-12-05T11:52:41.007Z,101937.91
2022-12-05T11:55:52.793Z,101936.25
2022-12-05T11:59:36.915Z,101934.66
2022-12-05T12:03:16.605Z,101944.13
2022-12-05T12:06:32.009Z,101942.97
2022-12-05T12:09:51.583Z,101937.78
2022-12-05T12:13:16.123Z,101936.06
2022-12-05T12:16:36.337Z,101929.09
2022-12-05T12:20:20.462Z,101932.53
2022-12-05T12:23:51.689Z,101932.44
2022-12-05T12:27:14.960Z,101928.81
2022-12-05T12:30:27.702Z,101923.69
2022-12-05T12:33:42.140Z,101928.81
2022-12-05T12:36:53.879Z,101917.56
2022-12-05T12:40:13.552Z,101920.97
2022-12-05T12:43:56.810Z,101924.44
2022-12-05T12:47:05.330Z,101923.53
2022-12-05T12:50:20.658Z,101922.59
2022-12-05T12:54:10.406Z,101924.38
2022-12-05T12:57:27.995Z,101923.66
2022-12-05T13:00:51.095Z,101921.78
2022-12-05T13:04:02.929Z,101928.56
2022-12-05T13:07:17.270Z,101924.94
2022-12-05T13:10:33.131Z,101920.69
2022-12-05T13:13:44.151Z,101917.97
2022-12-05T13:16:53.149Z,101923.91
2022-12-05T13:19:58.027Z,101919.53
2022-12-05T13:23:08.381Z,101926.50
2022-12-05T13:26:14.444Z,101918.69
2022-12-05T13:29:25.328Z,101923.69
2022-12-05T13:32:34.459Z,101916.78
2022-12-05T13:35:57.906Z,101907.56
2022-12-05T13:39:24.115Z,101909.31
2022-12-05T13:42:33.183Z,101918.66
2022-12-05T13:45:37.343Z,101916.84
2022-12-05T13:48:45.757Z,101917.66
2022-12-05T13:51:49.534Z,101921.09
2022-12-05T13:55:02.171Z,101920.22
2022-12-05T13:58:51.639Z,101929.78
2022-12-05T14:01:56.574Z,101925.66
2022-12-05T14:05:00.376Z,101927.16
2022-12-05T14:08:56.718Z,101929.78
2022-12-05T14:12:48.037Z,101931.44
2022-12-05T14:15:53.373Z,101932.50
2022-12-05T14:19:08.302Z,101936.81
2022-12-05T14:22:42.354Z,101934.91
2022-12-05T14:26:09.113Z,101939.16
2022-12-05T14:29:40.370Z,101927.19
2022-12-05T14:32:44.938Z,101933.06
2022-12-05T14:35:53.074Z,101931.50
2022-12-05T14:38:56.722Z,101932.22
2022-12-05T14:42:04.485Z,101933.91
2022-12-05T14:45:47.839Z,101935.63
2022-12-05T14:48:52.254Z,101934.75
2022-12-05T14:51:59.175Z,101939.81
2022-12-05T14:55:22.050Z,101938.88
2022-12-05T14:58:38.741Z,101938.00
2022-12-05T15:01:50.287Z,101936.19
2022-12-05T15:05:02.829Z,101938.78
2022-12-05T15:08:07.569Z,101940.56
2022-12-05T15:11:28.371Z,101938.69
2022-12-05T15:14:41.338Z,101945.53
2022-12-05T15:17:53.495Z,101938.69
2022-12-05T15:21:04.083Z,101938.69
2022-12-05T15:24:14.963Z,101938.22
2022-12-05T15:27:18.920Z,101938.34
2022-12-05T15:30:22.786Z,101947.66
2022-12-05T15:33:29.878Z,101945.94
2022-12-05T15:36:42.169Z,101954.44
2022-12-05T15:39:56.327Z,101957.06
2022-12-05T15:43:00.095Z,101959.50
2022-12-05T15:46:27.771Z,101958.81
2022-12-05T15:49:32.738Z,101959.63
2022-12-05T15:52:44.733Z,101953.59
2022-12-05T15:55:53.781Z,101963.03
2022-12-05T15:59:05.770Z,101964.78
2022-12-05T16:02:18.256Z,101958.03
2022-12-05T16:05:30.490Z,101964.13
2022-12-05T16:08:40.899Z,101952.91
2022-12-05T16:11:54.446Z,101959.00
2022-12-05T16:15:06.227Z,101959.81
2022-12-05T16:18:27.727Z,101961.50
2022-12-05T16:21:38.795Z,101960.63
2022-12-05T16:24:48.484Z,101958.09
2022-12-05T16:28:15.140Z,101964.19
2022-12-05T16:31:18.815Z,101968.53
2022-12-05T16:34:22.684Z,101956.25
2022-12-05T16:37:31.726Z,101964.03
2022-12-05T16:40:35.490Z,101960.53
2022-12-05T16:43:47.581Z,101962.22
2022-12-05T16:46:51.504Z,101958.88
2022-12-05T16:49:55.159Z,101969.28
2022-12-05T16:53:21.248Z,101959.69
2022-12-05T16:56:31.256Z,101970.78
2022-12-05T16:59:38.396Z,101965.78
2022-12-05T17:02:42.289Z,101964.63
2022-12-05T17:05:45.971Z,101963.72
2022-12-05T17:08:51.803Z,101962.91
2022-12-05T17:12:04.255Z,101968.19
2022-12-05T17:15:17.592Z,101964.72
2022-12-05T17:18:27.935Z,101969.84
2022-12-05T17:21:36.261Z,101968.06
2022-12-05T17:24:41.327Z,101967.34
2022-12-05T17:27:45.080Z,101973.94
2022-12-05T17:30:48.960Z,101970.31
2022-12-05T17:33:54.940Z,101970.41
2022-12-05T17:36:58.678Z,101975.69
2022-12-05T17:40:03.838Z,101983.50
2022-12-05T17:43:07.840Z,101982.72
2022-12-05T17:46:11.822Z,101974.94
2022-12-05T17:49:20.134Z,101979.94
2022-12-05T17:52:23.886Z,101979.91
2022-12-05T17:55:31.248Z,101966.06
2022-12-05T17:58:34.863Z,101967.66
2022-12-05T18:01:38.486Z,101966.06
2022-12-05T18:04:42.065Z,101969.66
2022-12-05T18:07:46.932Z,101975.53
2022-12-05T18:10:52.580Z,101976.59
2022-12-05T18:13:56.822Z,101980.84
2022-12-05T18:17:01.243Z,101983.59
2022-12-05T18:20:06.926Z,101992.09
2022-12-05T18:23:11.799Z,101989.38
2022-12-05T18:26:16.918Z,101989.97
2022-12-05T18:29:20.973Z,101999.28
2022-12-05T18:32:25.028Z,101996.03
2022-12-05T18:35:41.342Z,101993.63
2022-12-05T18:38:52.283Z,101999.88
2022-12-05T18:41:57.451Z,101991.31
2022-12-05T18:45:01.822Z,101995.59
2022-12-05T18:48:23.806Z,101993.84
2022-12-05T18:51:30.807Z,102001.38
2022-12-05T18:54:34.865Z,102001.44
2022-12-05T18:57:40.359Z,102004.94
2022-12-05T19:00:44.252Z,101991.94
2022-12-05T19:03:48.327Z,101993.69
2022-12-05T19:06:54.951Z,101995.44
2022-12-05T19:09:58.623Z,101991.09
2022-12-05T19:13:03.693Z,101985.94
2022-12-05T19:16:10.184Z,101988.47
2022-12-05T19:19:15.924Z,101990.28
2022-12-05T19:22:19.602Z,101992.38
2022-12-05T19:25:23.326Z,101985.28
2022-12-05T19:28:29.106Z,101999.00
2022-12-05T19:31:33.238Z,101999.56
2022-12-05T19:34:36.954Z,102000.41
2022-12-05T19:37:40.521Z,101990.06
2022-12-05T19:40:44.824Z,101989.31
2022-12-05T19:43:50.373Z,101989.38
2022-12-05T19:46:55.113Z,101990.22
2022-12-05T19:49:59.182Z,101995.41
2022-12-05T19:53:03.103Z,101995.50
2022-12-05T19:56:09.880Z,101995.50
2022-12-05T19:59:17.491Z,101999.72
2022-12-05T20:02:21.344Z,101995.44
2022-12-05T20:05:25.467Z,101995.47
2022-12-05T20:08:29.139Z,102000.88
2022-12-05T20:11:32.979Z,101990.50
2022-12-05T20:14:38.649Z,101998.28
2022-12-05T20:17:42.525Z,101992.13
2022-12-05T20:20:57.157Z,101992.09
2022-12-05T20:24:02.851Z,101994.97
2022-12-05T20:27:07.358Z,101984.59
2022-12-05T20:30:13.107Z,101981.28
2022-12-05T20:33:17.293Z,101986.25
2022-12-05T20:36:23.680Z,101987.22
2022-12-05T20:39:28.162Z,101988.22
2022-12-05T20:42:32.271Z,101975.13
2022-12-05T20:45:38.011Z,101975.16
2022-12-05T20:48:42.910Z,101974.31
2022-12-05T20:51:48.798Z,101971.03
2022-12-05T20:54:52.735Z,101971.78
2022-12-05T20:57:56.557Z,101973.53
2022-12-05T21:01:02.984Z,101968.41
2022-12-05T21:04:09.284Z,101978.81
2022-12-05T21:07:13.194Z,101968.47
2022-12-05T21:10:17.626Z,101966.03
2022-12-05T21:13:21.579Z,101959.97
2022-12-05T21:16:27.121Z,101958.31
2022-12-05T21:19:31.007Z,101956.66
2022-12-05T21:22:34.978Z,101954.00
2022-12-05T21:25:38.700Z,101959.19
2022-12-05T21:28:43.826Z,101956.72
2022-12-05T21:31:52.907Z,101958.53
2022-12-05T21:34:56.533Z,101962.94
2022-12-05T21:38:01.105Z,101958.59
2022-12-05T21:41:06.684Z,101958.53
2022-12-05T21:44:11.083Z,101956.09
2022-12-05T21:47:16.668Z,101955.28
2022-12-05T21:50:20.357Z,101953.44
2022-12-05T21:53:24.302Z,101957.75
2022-12-05T21:56:28.449Z,101948.41
2022-12-05T21:59:33.290Z,101948.44
2022-12-05T22:02:38.399Z,101948.47
2022-12-05T22:05:42.369Z,101947.63
2022-12-05T22:08:46.092Z,101950.16
2022-12-05T22:11:49.867Z,101949.41
2022-12-05T22:14:53.507Z,101945.03
2022-12-05T22:17:58.675Z,101945.03
2022-12-05T22:21:05.835Z,101945.97
2022-12-05T22:24:09.716Z,101948.59
2022-12-05T22:27:13.379Z,101945.16
2022-12-05T22:30:17.606Z,101939.13
2022-12-05T22:33:22.791Z,101939.97
2022-12-05T22:36:26.787Z,101939.09
2022-12-05T22:39:30.616Z,101929.72
2022-12-05T22:42:43.844Z,101934.13
2022-12-05T22:45:47.630Z,101924.63
2022-12-05T22:48:53.412Z,101929.00
2022-12-05T22:51:57.076Z,101927.28
2022-12-05T22:55:01.088Z,101923.88
2022-12-05T22:58:05.090Z,101920.44
2022-12-05T23:01:14.882Z,101927.31
2022-12-05T23:04:20.248Z,101910.19
2022-12-05T23:07:24.162Z,101910.19
2022-12-05T23:10:27.843Z,101911.09
2022-12-05T23:13:33.698Z,101909.47
2022-12-05T23:16:37.416Z,101901.72
2022-12-05T23:19:42.555Z,101907.78
2022-12-05T23:22:46.839Z,101902.69
2022-12-05T23:25:51.144Z,101906.16
2022-12-05T23:28:56.153Z,101901.00
2022-12-05T23:31:59.932Z,101899.38
2022-12-05T23:35:05.646Z,101900.25
2022-12-05T23:38:09.417Z,101895.91
2022-12-05T23:41:16.290Z,101896.00
2022-12-05T23:44:19.978Z,101898.63
2022-12-05T23:47:23.562Z,101892.59
2022-12-05T23:50:28.591Z,101886.50
2022-12-05T23:53:35.320Z,101880.47
2022-12-05T23:56:39.810Z,101886.53
2022-12-05T23:59:43.395Z,101883.25
